Incheon International Airport
RKSI : now visible

Airfield :











YOU CAN JOIN US ON...

 
LOGIN :

Register | Disclaimer

   EN    FR    IT 

 









Legend :    VFR   Marginal VFR   IFR   Intensive IFR   Very Intensive IFR
Visi :
Ceiling :
>= 8 km
>= 3000ft
5 to 8 km
1000 to 3000 ft
1500m to 5 km
500 to 1000 ft
800 to 1500m
200 to 500 ft
< 800m
< 200 ft
Symbols :   Thunderstorms  Fog  Heavy snow  Heavy precipitations  Wind > 20 kt






- Airport Elevation : 23 ft
- IATA code : ICN


RKSI - Incheon International

CURRENT METAR :
  • 201600Z 28002KT 1500 0800S PRFG BKN002 14/14 Q1018 NOSIG

EXPIRED METARs :
  • 201530Z 27002KT 1500 BR BKN002 14/14 Q1018 NOSIG
  • 201500Z 21005KT 1500 BR BKN002 14/14 Q1018 NOSIG
  • 201430Z 25004KT 210V330 1500 BR BKN002 15/14 Q1018 NOSIG
  • 201400Z 29003KT 250V330 1500 BR BKN002 15/14 Q1018 NOSIG
  • 201330Z 25003KT 180V290 2500 1000S BR BKN002 14/14 Q1018 NOSIG
  • 201300Z 22003KT 190V280 2500 1200S BR BKN002 15/14 Q1018 NOSIG
  • 201230Z 23004KT 180V280 3000 1200S BR BKN002 15/14 Q1018 NOSIG
  • 201200Z 25004KT 210V290 3000 1400S BR BKN003 15/14 Q1017 NOSIG
  • 201130Z 26004KT 210V300 4000 BR BKN003 15/14 Q1017 NOSIG

TAF AMD TAF RKSI
Valid from the 20 at 13:00 until the 21 at 18:00 UTC


201310Z 2013/2118 24006KT 2000 BR BKN002 TN14/2020Z TX24/2105Z
TEMPO 2016/2023 06006KT 0400 FG
BECMG 2023/2101 13006KT 4000 SCT010 BKN025
BECMG 2103/2105 27006KT 6000 NSW FEW015 SCT030
BECMG 2114/2116 24006KT 1800 BR SCT005 BKN015
RKRR FIR / Asia



MET'MAP, your aeronautical weather chart ! - Copyright ORBIFLY December 2007 - Disclaimer

ORBIFLY MET'MAP TEAM :

Programming & Development : Alexandra Zaïnal
Original concept : Baudouin d'Aumeries
Technical & hardware support : Manuel Goepfert
Assistance : Marc-Olivier Méhu




SOURCES & CREDITS :

   NOAA       Earth
Advisory